Royer Lake, Indiana
Current Conditions -  °F | °C
As of 4:34 PM on Wednesday 17 Dec 2014 (Local Time) from KIRS Reporting Station
Overcast Overcast  
Wind Chill: 18°   Ceiling: 2300
Heat Index: 27°   Visibility: 10mi
Dew Point: 21°   Wind: 8mph
Humidity: 80%   Direction: 290°WNW
Pressure: 30.15"   Gusts: 18mph
Location:  41.6561°N, 85.3683°W
Report Text: KIRS 172134Z AUTO 29007G16KT 10SM OVC023 M03/M06 A3015 RMK AO2
Loading
Personal Weather Stations






























Interactive Weather Map New forecast layout! Learn more

10-Day Weather Forecast

Advertisements
Track Severe Weather on mobile